Airfield :
LOGIN :

Register | Disclaimer

   EN    FR    IT 

 










Legend :    VFR   Marginal VFR   IFR   Intensive IFR   Very Intensive IFR
Visi :
Ceiling :
>= 8 km
>= 3000ft
5 to 8 km
1000 to 3000 ft
1500m to 5 km
500 to 1000 ft
800 to 1500m
200 to 500 ft
< 800m
< 200 ft
Symbols :   Thunderstorms  Fog  Heavy snow  Heavy precipitations  Wind > 20 kt
SIGMETs :     Misc.  Thunderstorms  Icing  Turbulence  Mountain Waves  Volcanic Ashes







- Airport Elevation : 1306 ft
- IATA code : ACH


LSZR - Alten Rhein

CURRENT METAR :
  • 261750Z 22003KT CAVOK 04/M01 Q1029 NOSIG RMK N

EXPIRED METARs :
  • 261720Z 29004KT 9999 FEW060 07/M02 Q1028 NOSIG RMK M
  • 261650Z 29004KT 9999 FEW060 07/M02 Q1028 NOSIG RMK M
  • 261620Z 32005KT 9999 FEW060 08/M03 Q1028 NOSIG RMK L
  • 261550Z 32005KT 9999 FEW060 08/M03 Q1028 NOSIG RMK L
  • 261520Z 28004KT 230V340 9999 FEW060 08/M05 Q1028 NOSIG RMK K

TAF TAF LSZR
Valid from the 26 at 15:00 until the 27 at 00:00 UTC


261425Z 2615/2624 28006KT 9999 FEW060
ATIS : +41 71 858 51 66
No reported NOTAMs for that airfield.



MET'MAP, your aeronautical weather chart ! - Copyright ORBIFLY December 2007 - Disclaimer

ORBIFLY MET'MAP TEAM :

Programming & Development : Alexandra Zaïnal
Concept & Development : Baudouin d'Aumeries
Co-Development & Prog : Marc-Olivier Méhu
Technical & hardware support : Manuel Goepfert

Contact : metmap@orbifly.com




SOURCES & CREDITS :

   NOAA